Time;durP1;ratioP1;P1;durP2;ratioP2;P2;SDS_P1;SDS_P2;PMS_P1;PMS_P2;Temp;Humidity;BMP_temperature;BMP_pressure;BME280_temperature;BME280_humidity;BME280_pressure;Samples;Min_cycle;Max_cycle;Signal;HPM_P1;HPM_P2
2023/03/18 00:01:41;;;;;;;13.48;2.60;;;;;;;;;;5086522;28;20060;-75
2023/03/18 00:04:13;;;;;;;9.95;2.25;;;;;;;;;;5086600;28;20415;-74
2023/03/18 00:06:45;;;;;;;14.98;4.53;;;;;;;;;;5086415;28;20052;-74
2023/03/18 00:09:16;;;;;;;17.52;2.80;;;;;;;;;;5086947;28;20051;-74
2023/03/18 00:11:46;;;;;;;12.10;2.35;;;;;;;;;;5086313;28;20416;-74
2023/03/18 00:14:21;;;;;;;4.95;2.30;;;;;;;;;;5086648;28;20455;-76
2023/03/18 00:16:51;;;;;;;10.98;2.28;;;;;;;;;;5087025;28;20044;-77
2023/03/18 00:19:24;;;;;;;9.32;2.03;;;;;;;;;;5100123;28;20071;-75
2023/03/18 00:21:54;;;;;;;8.55;2.38;;;;;;;;;;5106418;28;20062;-73
2023/03/18 00:24:27;;;;;;;9.25;2.30;;;;;;;;;;5103911;28;20047;-74
2023/03/18 00:26:58;;;;;;;12.75;2.20;;;;;;;;;;5106450;28;20047;-74
2023/03/18 00:29:30;;;;;;;5.18;1.92;;;;;;;;;;5106958;28;20056;-74
2023/03/18 00:32:00;;;;;;;12.85;2.50;;;;;;;;;;5107010;28;20043;-74
2023/03/18 00:34:32;;;;;;;9.88;2.20;;;;;;;;;;5106737;28;20395;-74
2023/03/18 00:37:03;;;;;;;10.45;2.20;;;;;;;;;;5106523;28;20048;-74
2023/03/18 00:39:36;;;;;;;5.65;1.92;;;;;;;;;;5106970;28;20051;-75
2023/03/18 00:42:09;;;;;;;11.85;2.00;;;;;;;;;;5106450;28;20086;-74
2023/03/18 00:44:42;;;;;;;6.80;1.90;;;;;;;;;;5107025;28;20048;-73
2023/03/18 00:47:13;;;;;;;12.55;2.00;;;;;;;;;;5106431;28;20494;-74
2023/03/18 00:49:44;;;;;;;9.77;2.00;;;;;;;;;;5106602;28;20048;-74
2023/03/18 00:52:14;;;;;;;6.35;2.00;;;;;;;;;;5106395;28;20047;-74
2023/03/18 00:54:45;;;;;;;12.00;2.15;;;;;;;;;;5104746;28;20051;-74
2023/03/18 00:57:16;;;;;;;9.40;2.38;;;;;;;;;;5106332;28;20044;-76
2023/03/18 00:59:50;;;;;;;10.50;2.17;;;;;;;;;;5105002;28;20055;-74
2023/03/18 01:02:22;;;;;;;7.78;2.83;;;;;;;;;;5104942;28;20047;-74
2023/03/18 01:04:52;;;;;;;8.77;2.25;;;;;;;;;;5104455;28;20047;-73
2023/03/18 01:07:23;;;;;;;8.27;2.22;;;;;;;;;;5105702;28;20054;-73
2023/03/18 01:09:55;;;;;;;8.10;2.17;;;;;;;;;;5106321;28;20106;-73
2023/03/18 01:12:26;;;;;;;12.25;2.75;;;;;;;;;;5109995;28;20398;-73
2023/03/18 01:14:58;;;;;;;10.40;2.03;;;;;;;;;;5110347;28;20047;-74
2023/03/18 01:17:28;;;;;;;6.07;2.05;;;;;;;;;;5109004;28;20052;-75
2023/03/18 01:20:01;;;;;;;15.38;2.80;;;;;;;;;;5107930;28;20426;-74
2023/03/18 01:22:32;;;;;;;9.40;2.35;;;;;;;;;;5108207;28;20396;-75
2023/03/18 01:25:03;;;;;;;5.20;2.25;;;;;;;;;;5109847;28;20047;-74
2023/03/18 01:27:37;;;;;;;13.77;2.15;;;;;;;;;;5108209;28;20078;-74
2023/03/18 01:30:10;;;;;;;17.45;2.42;;;;;;;;;;5110078;28;20047;-75
2023/03/18 01:32:42;;;;;;;14.20;2.47;;;;;;;;;;5107646;28;20043;-73
2023/03/18 01:35:13;;;;;;;9.25;2.22;;;;;;;;;;5108004;28;20052;-74
2023/03/18 01:37:47;;;;;;;12.10;2.45;;;;;;;;;;5107567;28;20387;-74
2023/03/18 01:40:20;;;;;;;9.25;2.03;;;;;;;;;;5110048;28;20516;-74
2023/03/18 01:42:56;;;;;;;;;;;;;;;;;;5108341;28;20051;-75
2023/03/18 01:45:34;;;;;;;12.05;2.47;;;;;;;;;;5105933;28;19923;-75
2023/03/18 01:48:06;;;;;;;17.42;2.47;;;;;;;;;;5108701;28;20040;-75
2023/03/18 01:50:37;;;;;;;7.75;2.60;;;;;;;;;;5109384;28;20058;-74
2023/03/18 01:53:12;;;;;;;10.63;2.47;;;;;;;;;;5109667;28;20043;-74
2023/03/18 01:55:45;;;;;;;17.35;2.60;;;;;;;;;;5107839;28;20055;-74
2023/03/18 01:58:24;;;;;;;7.55;2.20;;;;;;;;;;5108172;28;20466;-74
2023/03/18 02:01:01;;;;;;;6.30;2.22;;;;;;;;;;5107819;28;20059;-76
2023/03/18 02:03:33;;;;;;;13.50;2.30;;;;;;;;;;5107538;28;20055;-74
2023/03/18 02:06:04;;;;;;;6.95;2.38;;;;;;;;;;5107619;28;20057;-73
2023/03/18 02:08:39;;;;;;;12.25;2.83;;;;;;;;;;5107397;28;20051;-74
2023/03/18 02:11:10;;;;;;;8.45;2.38;;;;;;;;;;5107262;28;20062;-75
2023/03/18 02:13:44;;;;;;;13.95;2.85;;;;;;;;;;5107778;28;20511;-74
2023/03/18 02:16:24;;;;;;;12.52;2.55;;;;;;;;;;5107870;28;20477;-74
2023/03/18 02:19:06;;;;;;;;;;;;;;;;;;5107396;28;20048;-74
2023/03/18 02:21:40;;;;;;;9.88;2.30;;;;;;;;;;5105815;28;19924;-75
2023/03/18 02:24:19;;;;;;;17.27;2.40;;;;;;;;;;5108233;28;20052;-75
2023/03/18 02:26:57;;;;;;;13.88;2.40;;;;;;;;;;5108956;28;20067;-74
2023/03/18 02:29:37;;;;;;;7.13;2.33;;;;;;;;;;5107426;28;20047;-75
2023/03/18 02:32:14;;;;;;;8.95;2.88;;;;;;;;;;5107051;28;20059;-74
2023/03/18 02:34:45;;;;;;;6.82;2.60;;;;;;;;;;5106916;28;20060;-74
2023/03/18 02:37:15;;;;;;;4.50;2.33;;;;;;;;;;5107130;28;20062;-73
2023/03/18 02:39:47;;;;;;;9.77;2.58;;;;;;;;;;5106362;28;20490;-74
2023/03/18 02:42:31;;;;;;;8.07;2.30;;;;;;;;;;5107084;28;20059;-74
2023/03/18 02:45:02;;;;;;;7.47;2.15;;;;;;;;;;5106447;28;20055;-74
2023/03/18 02:47:48;;;;;;;12.50;2.25;;;;;;;;;;5106807;28;20056;-75
2023/03/18 02:50:21;;;;;;;13.52;2.53;;;;;;;;;;5090540;28;20048;-74
2023/03/18 02:52:52;;;;;;;6.97;2.42;;;;;;;;;;5107356;28;20063;-74
2023/03/18 02:55:23;;;;;;;5.13;2.10;;;;;;;;;;5107052;28;20052;-73
2023/03/18 02:57:53;;;;;;;8.05;2.35;;;;;;;;;;5106969;28;20051;-74
2023/03/18 03:00:26;;;;;;;8.38;3.00;;;;;;;;;;5108189;28;20066;-74
2023/03/18 03:02:59;;;;;;;7.28;2.13;;;;;;;;;;5105238;28;20052;-74
2023/03/18 03:05:34;;;;;;;22.23;2.90;;;;;;;;;;5106305;28;20513;-75
2023/03/18 03:08:05;;;;;;;18.77;3.08;;;;;;;;;;5106577;28;20065;-74
2023/03/18 03:10:40;;;;;;;9.90;2.97;;;;;;;;;;5105357;28;20059;-74
2023/03/18 03:13:11;;;;;;;8.30;2.40;;;;;;;;;;5106552;28;20522;-74
2023/03/18 03:15:42;;;;;;;8.77;2.63;;;;;;;;;;5106548;28;20043;-75
2023/03/18 03:18:14;;;;;;;9.52;2.47;;;;;;;;;;5090071;28;20047;-74
2023/03/18 03:20:45;;;;;;;6.57;2.42;;;;;;;;;;5106593;28;20055;-75
2023/03/18 03:23:16;;;;;;;9.48;2.50;;;;;;;;;;5107955;28;20518;-75
2023/03/18 03:25:48;;;;;;;21.08;2.97;;;;;;;;;;5106542;28;20055;-74
2023/03/18 03:28:20;;;;;;;12.57;2.80;;;;;;;;;;5105824;28;20542;-75
2023/03/18 03:30:52;;;;;;;11.35;2.70;;;;;;;;;;5107500;28;20047;-74
2023/03/18 03:33:24;;;;;;;11.80;2.70;;;;;;;;;;5105466;28;20056;-74
2023/03/18 03:35:57;;;;;;;8.60;2.55;;;;;;;;;;5105057;28;20056;-75
2023/03/18 03:38:27;;;;;;;9.55;2.85;;;;;;;;;;5107568;28;20055;-74
2023/03/18 03:40:58;;;;;;;5.70;2.10;;;;;;;;;;5108065;28;20390;-74
2023/03/18 03:43:29;;;;;;;10.75;2.45;;;;;;;;;;5107665;28;20075;-75
2023/03/18 03:45:59;;;;;;;6.97;2.25;;;;;;;;;;5090520;28;20048;-75
2023/03/18 03:48:30;;;;;;;15.95;2.50;;;;;;;;;;5105545;28;20633;-74
2023/03/18 03:51:03;;;;;;;6.60;2.30;;;;;;;;;;5105434;28;20047;-74
2023/03/18 03:53:35;;;;;;;7.65;2.47;;;;;;;;;;5105604;28;20055;-74
2023/03/18 03:56:07;;;;;;;9.23;2.90;;;;;;;;;;5104945;28;20563;-75
2023/03/18 03:58:38;;;;;;;7.65;2.25;;;;;;;;;;5105444;28;20044;-74
2023/03/18 04:01:10;;;;;;;12.43;3.13;;;;;;;;;;5105898;28;20525;-74
2023/03/18 04:03:43;;;;;;;6.68;2.67;;;;;;;;;;5105155;28;20063;-74
2023/03/18 04:06:14;;;;;;;8.48;2.40;;;;;;;;;;5107179;28;20055;-74
2023/03/18 04:08:51;;;;;;;12.88;2.70;;;;;;;;;;5105684;28;20044;-74
2023/03/18 04:11:24;;;;;;;6.45;2.35;;;;;;;;;;5105027;28;20514;-75
2023/03/18 04:13:56;;;;;;;7.15;2.90;;;;;;;;;;5105289;28;20063;-74
2023/03/18 04:16:27;;;;;;;8.80;2.63;;;;;;;;;;5105297;28;20056;-75
2023/03/18 04:18:58;;;;;;;7.50;2.70;;;;;;;;;;5105618;28;20044;-75
2023/03/18 04:21:31;;;;;;;6.38;2.22;;;;;;;;;;5105403;28;20059;-73
2023/03/18 04:24:03;;;;;;;8.50;2.58;;;;;;;;;;5104681;28;20502;-75
2023/03/18 04:26:34;;;;;;;18.15;2.67;;;;;;;;;;5107096;28;20055;-74
2023/03/18 04:29:05;;;;;;;6.78;2.47;;;;;;;;;;5105120;28;20052;-75
2023/03/18 04:31:36;;;;;;;11.35;2.92;;;;;;;;;;5107733;28;20055;-74
2023/03/18 04:34:08;;;;;;;5.07;2.15;;;;;;;;;;5106478;28;20521;-74
2023/03/18 04:36:40;;;;;;;8.82;2.60;;;;;;;;;;5105239;28;20414;-74
2023/03/18 04:39:11;;;;;;;12.88;2.50;;;;;;;;;;5104916;28;20052;-75
2023/03/18 04:41:42;;;;;;;11.50;2.75;;;;;;;;;;5105431;28;20055;-75
2023/03/18 04:44:13;;;;;;;10.20;2.40;;;;;;;;;;5106602;28;20047;-75
2023/03/18 04:46:52;;;;;;;11.55;2.70;;;;;;;;;;5108883;28;20051;-74
2023/03/18 04:49:24;;;;;;;20.17;3.90;;;;;;;;;;5109093;28;20048;-74
2023/03/18 04:51:57;;;;;;;8.07;2.55;;;;;;;;;;5109058;28;20051;-73
2023/03/18 04:54:31;;;;;;;13.45;2.72;;;;;;;;;;5109051;28;20040;-73
2023/03/18 04:57:05;;;;;;;8.23;2.80;;;;;;;;;;5108776;28;20055;-74
2023/03/18 04:59:43;;;;;;;15.75;3.28;;;;;;;;;;5109013;28;20051;-75
2023/03/18 05:02:15;;;;;;;9.10;2.53;;;;;;;;;;5109040;28;20054;-75
2023/03/18 05:04:46;;;;;;;19.35;3.20;;;;;;;;;;5108760;28;20047;-73
2023/03/18 05:07:19;;;;;;;10.63;2.90;;;;;;;;;;5092052;28;20058;-75
2023/03/18 05:09:58;;;;;;;9.02;3.30;;;;;;;;;;5108485;28;20051;-74
2023/03/18 05:12:30;;;;;;;8.00;2.50;;;;;;;;;;5108030;28;20051;-75
2023/03/18 05:15:01;;;;;;;8.98;2.65;;;;;;;;;;5108384;28;20056;-75
2023/03/18 05:17:31;;;;;;;12.95;2.80;;;;;;;;;;5108819;28;20062;-75
2023/03/18 05:20:04;;;;;;;11.02;2.45;;;;;;;;;;5109963;28;20062;-74
2023/03/18 05:22:34;;;;;;;10.93;3.15;;;;;;;;;;5110326;28;20509;-75
2023/03/18 05:25:14;;;;;;;10.27;2.75;;;;;;;;;;5108717;28;20056;-74
2023/03/18 05:27:44;;;;;;;12.00;3.22;;;;;;;;;;5109993;28;20516;-75
2023/03/18 05:30:23;;;;;;;8.32;3.00;;;;;;;;;;5107995;28;20071;-75
2023/03/18 05:32:55;;;;;;;11.70;3.53;;;;;;;;;;5108115;28;20047;-74
2023/03/18 05:35:53;;;;;;;7.28;2.75;;;;;;;;;;5106883;28;20047;-74
2023/03/18 05:38:30;;;;;;;14.52;2.97;;;;;;;;;;5108294;28;20097;-75
2023/03/18 05:41:01;;;;;;;11.48;3.30;;;;;;;;;;5108739;28;20059;-74
2023/03/18 05:43:41;;;;;;;18.95;3.67;;;;;;;;;;5107725;28;20051;-75
2023/03/18 05:46:12;;;;;;;13.55;3.40;;;;;;;;;;5107788;28;20644;-73
2023/03/18 05:48:53;;;;;;;8.43;3.35;;;;;;;;;;5107595;28;20051;-75
2023/03/18 05:51:27;;;;;;;11.45;3.75;;;;;;;;;;5107491;28;20051;-73
2023/03/18 05:53:59;;;;;;;10.70;3.42;;;;;;;;;;5107643;28;20399;-75
2023/03/18 05:56:34;;;;;;;11.50;3.20;;;;;;;;;;5107429;28;20062;-74
2023/03/18 05:59:06;;;;;;;9.50;3.20;;;;;;;;;;5106488;28;20054;-75
2023/03/18 06:01:47;;;;;;;7.15;2.97;;;;;;;;;;5107533;28;20062;-74
2023/03/18 06:04:19;;;;;;;14.45;4.47;;;;;;;;;;5109971;28;20059;-74
2023/03/18 06:06:53;;;;;;;15.57;3.25;;;;;;;;;;5107909;28;20059;-74
2023/03/18 06:09:24;;;;;;;10.52;2.92;;;;;;;;;;5107608;28;20048;-75
2023/03/18 06:11:56;;;;;;;10.13;2.92;;;;;;;;;;5108803;28;20047;-74
2023/03/18 06:14:28;;;;;;;13.82;3.28;;;;;;;;;;5107392;28;20043;-73
2023/03/18 06:17:02;;;;;;;10.38;2.95;;;;;;;;;;5107482;28;20055;-74
2023/03/18 06:19:34;;;;;;;11.52;3.20;;;;;;;;;;5106926;28;20070;-74
2023/03/18 06:22:04;;;;;;;11.63;3.85;;;;;;;;;;5109239;28;20051;-74
2023/03/18 06:24:35;;;;;;;14.77;3.10;;;;;;;;;;5107067;28;20043;-73
2023/03/18 06:27:08;;;;;;;11.25;3.53;;;;;;;;;;5107946;28;20047;-74
2023/03/18 06:29:42;;;;;;;10.57;3.42;;;;;;;;;;5107902;28;20052;-75
2023/03/18 06:32:16;;;;;;;12.35;3.25;;;;;;;;;;5106669;28;20533;-74
2023/03/18 06:34:48;;;;;;;9.55;3.22;;;;;;;;;;5108603;28;20050;-73
2023/03/18 06:37:19;;;;;;;11.88;3.67;;;;;;;;;;5106771;28;20052;-75
2023/03/18 06:39:50;;;;;;;12.70;3.30;;;;;;;;;;5106802;28;20066;-74
2023/03/18 06:42:24;;;;;;;16.33;3.63;;;;;;;;;;5106491;28;20418;-75
2023/03/18 06:45:15;;;;;;;13.82;3.72;;;;;;;;;;5106769;28;20058;-75
2023/03/18 06:47:52;;;;;;;12.27;3.15;;;;;;;;;;5106668;28;20055;-73
2023/03/18 06:50:23;;;;;;;12.82;3.55;;;;;;;;;;5106761;28;20070;-75
2023/03/18 06:52:54;;;;;;;16.45;4.00;;;;;;;;;;5106753;28;20055;-75
2023/03/18 06:55:29;;;;;;;10.93;3.65;;;;;;;;;;5106452;28;20133;-75
2023/03/18 06:58:01;;;;;;;12.90;3.17;;;;;;;;;;5106986;28;20399;-74
2023/03/18 07:00:41;;;;;;;14.20;3.25;;;;;;;;;;5106767;28;20055;-73
2023/03/18 07:03:17;;;;;;;6.82;3.20;;;;;;;;;;5106560;28;20510;-74
2023/03/18 07:05:49;;;;;;;7.18;2.53;;;;;;;;;;5106431;28;20040;-75
2023/03/18 07:08:21;;;;;;;9.45;3.05;;;;;;;;;;5105760;28;20063;-73
2023/03/18 07:10:53;;;;;;;9.75;2.78;;;;;;;;;;5108096;28;20047;-74
2023/03/18 07:13:27;;;;;;;;;;;;;;;;;;5106469;28;20048;-74
2023/03/18 07:15:59;;;;;;;10.32;3.00;;;;;;;;;;5106012;28;19919;-73
2023/03/18 07:18:30;;;;;;;11.63;2.95;;;;;;;;;;5106235;28;20058;-74
2023/03/18 07:21:00;;;;;;;12.02;3.35;;;;;;;;;;5106655;28;20081;-73
2023/03/18 07:23:31;;;;;;;10.93;3.13;;;;;;;;;;5106754;28;20059;-75
2023/03/18 07:26:01;;;;;;;8.50;2.78;;;;;;;;;;5106127;28;20055;-72
2023/03/18 07:28:33;;;;;;;12.20;2.80;;;;;;;;;;5106023;28;20537;-73
2023/03/18 07:31:04;;;;;;;14.30;3.88;;;;;;;;;;5105441;28;20059;-73
2023/03/18 07:33:35;;;;;;;17.98;3.67;;;;;;;;;;5107282;28;20055;-73
2023/03/18 07:36:06;;;;;;;11.82;3.30;;;;;;;;;;5107797;28;20047;-75
2023/03/18 07:38:37;;;;;;;11.48;3.10;;;;;;;;;;5106152;28;20544;-74
2023/03/18 07:41:07;;;;;;;9.73;3.13;;;;;;;;;;5107958;28;20052;-74
2023/03/18 07:43:38;;;;;;;11.98;3.28;;;;;;;;;;5106643;28;20054;-74
2023/03/18 07:46:10;;;;;;;13.35;3.10;;;;;;;;;;5107662;28;20043;-74
2023/03/18 07:48:41;;;;;;;11.10;3.03;;;;;;;;;;5107616;28;20051;-73
2023/03/18 07:51:11;;;;;;;10.05;3.35;;;;;;;;;;5107246;28;20051;-74
2023/03/18 07:53:42;;;;;;;8.55;2.80;;;;;;;;;;5105210;28;20460;-74
2023/03/18 07:56:13;;;;;;;12.10;3.88;;;;;;;;;;5107010;28;20043;-74
2023/03/18 07:58:46;;;;;;;14.35;3.20;;;;;;;;;;5107210;28;20494;-74
2023/03/18 08:01:18;;;;;;;9.73;2.88;;;;;;;;;;5107407;28;20047;-74
2023/03/18 08:03:48;;;;;;;9.43;3.15;;;;;;;;;;5108114;28;20047;-73
2023/03/18 08:06:19;;;;;;;10.55;3.20;;;;;;;;;;5105935;28;20500;-73
2023/03/18 08:08:50;;;;;;;10.15;2.83;;;;;;;;;;5106887;28;20525;-74
2023/03/18 08:11:20;;;;;;;10.43;3.35;;;;;;;;;;5107817;28;20047;-73
2023/03/18 08:13:51;;;;;;;11.55;3.10;;;;;;;;;;5106757;28;20055;-74
2023/03/18 08:16:24;;;;;;;20.10;3.88;;;;;;;;;;5106947;28;20043;-74
2023/03/18 08:18:55;;;;;;;12.35;3.90;;;;;;;;;;5106934;28;20035;-73
2023/03/18 08:21:26;;;;;;;8.57;3.28;;;;;;;;;;5107184;28;20036;-73
2023/03/18 08:23:56;;;;;;;13.05;3.50;;;;;;;;;;5107214;28;20048;-73
2023/03/18 08:26:28;;;;;;;11.50;3.65;;;;;;;;;;5107127;28;20860;-74
2023/03/18 08:29:00;;;;;;;8.90;3.60;;;;;;;;;;5107378;28;20524;-74
2023/03/18 08:31:30;;;;;;;10.48;3.30;;;;;;;;;;5107119;28;20525;-75
2023/03/18 08:34:00;;;;;;;10.93;3.33;;;;;;;;;;5106826;28;20431;-73
2023/03/18 08:36:31;;;;;;;8.95;4.05;;;;;;;;;;5106636;28;20540;-75
2023/03/18 08:39:01;;;;;;;12.02;3.72;;;;;;;;;;5106789;28;20056;-74
2023/03/18 08:41:33;;;;;;;8.02;3.35;;;;;;;;;;5106390;28;20055;-74
2023/03/18 08:44:07;;;;;;;9.90;3.45;;;;;;;;;;5106600;28;20044;-75
2023/03/18 08:46:38;;;;;;;9.48;3.33;;;;;;;;;;5106272;28;20040;-74
2023/03/18 08:49:12;;;;;;;9.93;3.85;;;;;;;;;;5106807;28;20044;-73
2023/03/18 08:51:45;;;;;;;5.60;2.95;;;;;;;;;;5107048;28;20055;-74
2023/03/18 08:54:16;;;;;;;8.90;2.88;;;;;;;;;;5107071;28;20063;-74
2023/03/18 08:56:46;;;;;;;5.47;2.20;;;;;;;;;;5106856;28;20048;-74
2023/03/18 08:59:17;;;;;;;7.30;2.97;;;;;;;;;;5106885;28;21036;-73
2023/03/18 09:01:48;;;;;;;6.57;2.63;;;;;;;;;;5106844;28;20048;-72
2023/03/18 09:04:19;;;;;;;8.02;3.33;;;;;;;;;;5106217;28;20109;-74
2023/03/18 09:06:49;;;;;;;10.80;3.10;;;;;;;;;;5106285;28;20483;-74
2023/03/18 09:09:20;;;;;;;6.97;3.25;;;;;;;;;;5106732;28;20035;-73
2023/03/18 09:12:00;;;;;;;11.98;3.45;;;;;;;;;;5106937;28;20402;-74
2023/03/18 09:14:34;;;;;;;8.25;3.72;;;;;;;;;;5107160;28;20044;-73
2023/03/18 09:17:05;;;;;;;9.85;3.50;;;;;;;;;;5106423;28;20409;-73
2023/03/18 09:19:37;;;;;;;12.60;3.58;;;;;;;;;;5106059;28;20052;-74
2023/03/18 09:22:09;;;;;;;14.77;3.70;;;;;;;;;;5106018;28;20059;-74
2023/03/18 09:24:40;;;;;;;8.50;3.72;;;;;;;;;;5106712;28;20052;-74
2023/03/18 09:27:10;;;;;;;10.40;4.05;;;;;;;;;;5106548;28;20044;-73
2023/03/18 09:29:41;;;;;;;10.90;3.33;;;;;;;;;;5106791;28;20058;-73
2023/03/18 09:32:12;;;;;;;5.00;3.25;;;;;;;;;;5109696;28;20044;-74
2023/03/18 09:34:43;;;;;;;5.97;3.08;;;;;;;;;;5109838;28;20044;-73
2023/03/18 09:37:13;;;;;;;13.50;3.55;;;;;;;;;;5110079;28;20043;-72
2023/03/18 09:39:46;;;;;;;14.98;3.55;;;;;;;;;;5100132;28;20052;-74
2023/03/18 09:42:39;;;;;;;10.57;3.53;;;;;;;;;;5089565;28;20044;-72
2023/03/18 09:45:23;;;;;;;16.17;3.70;;;;;;;;;;5089684;28;20052;-73
2023/03/18 09:48:04;;;;;;;25.10;4.80;;;;;;;;;;5089010;28;20052;-72
2023/03/18 09:51:01;;;;;;;31.77;4.50;;;;;;;;;;5089377;28;20048;-73
2023/03/18 09:53:54;;;;;;;20.88;4.25;;;;;;;;;;5088054;28;20052;-73
2023/03/18 09:56:27;;;;;;;;;;;;;;;;;;5089525;28;20047;-74
2023/03/18 09:59:06;;;;;;;31.92;5.70;;;;;;;;;;5088874;28;19923;-72
2023/03/18 10:01:38;;;;;;;34.60;5.10;;;;;;;;;;5088681;28;20054;-73
2023/03/18 10:04:14;;;;;;;22.45;4.53;;;;;;;;;;5088402;28;20048;-74
2023/03/18 10:06:46;;;;;;;17.23;3.65;;;;;;;;;;5089066;28;20059;-75
2023/03/18 10:09:36;;;;;;;24.13;4.40;;;;;;;;;;5088730;28;20040;-73
2023/03/18 10:12:24;;;;;;;17.50;4.80;;;;;;;;;;5088800;28;20047;-73
2023/03/18 10:15:19;;;;;;;15.77;4.25;;;;;;;;;;5089022;28;20063;-74
2023/03/18 10:18:14;;;;;;;30.27;5.20;;;;;;;;;;5088516;28;20040;-74
2023/03/18 10:20:45;;;;;;;;;;;;;;;;;;5089187;28;20402;-74
2023/03/18 10:23:34;;;;;;;33.42;5.57;;;;;;;;;;5089044;28;19920;-74
2023/03/18 10:26:24;;;;;;;16.10;4.05;;;;;;;;;;5088296;28;20040;-75
2023/03/18 10:29:13;;;;;;;13.88;3.90;;;;;;;;;;5088843;28;20048;-76
2023/03/18 10:31:57;;;;;;;23.60;4.80;;;;;;;;;;5088775;28;20118;-75
2023/03/18 10:34:45;;;;;;;11.38;3.65;;;;;;;;;;5089982;28;20048;-77
2023/03/18 10:37:42;;;;;;;17.27;3.28;;;;;;;;;;5088200;28;20048;-73
2023/03/18 10:40:16;;;;;;;12.15;3.13;;;;;;;;;;5088209;28;20059;-74
2023/03/18 10:42:49;;;;;;;23.15;4.43;;;;;;;;;;5087310;28;20051;-74
2023/03/18 10:45:27;;;;;;;19.25;4.57;;;;;;;;;;5088253;28;20418;-74
2023/03/18 10:48:20;;;;;;;14.60;4.05;;;;;;;;;;5088388;28;20047;-77
2023/03/18 10:51:19;;;;;;;13.73;3.88;;;;;;;;;;5088711;28;20044;-74
2023/03/18 10:53:58;;;;;;;15.65;3.72;;;;;;;;;;5062376;28;20087;-73
2023/03/18 10:56:29;;;;;;;15.75;3.70;;;;;;;;;;5087759;28;20051;-77
2023/03/18 10:59:01;;;;;;;12.10;3.17;;;;;;;;;;5087768;28;20048;-75
2023/03/18 11:01:31;;;;;;;16.25;3.55;;;;;;;;;;5087478;28;20047;-73
2023/03/18 11:04:06;;;;;;;15.52;2.97;;;;;;;;;;5087790;28;20055;-73
2023/03/18 11:06:45;;;;;;;23.15;12.50;;;;;;;;;;5088608;28;20052;-76
2023/03/18 11:09:19;;;;;;;16.42;4.40;;;;;;;;;;5087822;28;20445;-73
2023/03/18 11:11:57;;;;;;;19.17;3.30;;;;;;;;;;5087426;28;20048;-74
2023/03/18 11:14:30;;;;;;;10.63;3.22;;;;;;;;;;5088094;28;20514;-75
2023/03/18 11:17:17;;;;;;;18.10;3.17;;;;;;;;;;5086396;28;20051;-74
2023/03/18 11:20:27;;;;;;;11.07;2.88;;;;;;;;;;5086471;28;20423;-77
2023/03/18 11:23:12;;;;;;;10.32;3.17;;;;;;;;;;5085723;28;20056;-77
2023/03/18 11:25:54;;;;;;;9.20;3.05;;;;;;;;;;5087752;28;20438;-74
2023/03/18 11:28:28;;;;;;;13.05;3.20;;;;;;;;;;5087621;28;20040;-76
2023/03/18 11:31:05;;;;;;;20.80;8.43;;;;;;;;;;5087320;28;20048;-77
2023/03/18 11:33:37;;;;;;;13.77;4.00;;;;;;;;;;5087790;28;20059;-73
2023/03/18 11:36:16;;;;;;;10.90;2.20;;;;;;;;;;5087466;28;20051;-76
2023/03/18 11:39:01;;;;;;;20.50;3.25;;;;;;;;;;5087585;28;20051;-76
2023/03/18 11:41:39;;;;;;;11.10;3.75;;;;;;;;;;5087809;28;20054;-77
2023/03/18 11:44:17;;;;;;;6.60;2.03;;;;;;;;;;5087617;28;20515;-77
2023/03/18 11:47:14;;;;;;;12.20;2.47;;;;;;;;;;5087087;28;20035;-77
2023/03/18 11:49:44;;;;;;;9.75;3.70;;;;;;;;;;5076285;28;20418;-79
2023/03/18 11:52:40;;;;;;;12.70;3.70;;;;;;;;;;5086667;28;20048;-74
2023/03/18 11:55:17;;;;;;;7.05;2.13;;;;;;;;;;5086498;28;20056;-78
2023/03/18 11:58:09;;;;;;;8.77;2.28;;;;;;;;;;5085024;28;20511;-77
2023/03/18 12:00:53;;;;;;;7.40;2.50;;;;;;;;;;5085951;28;20056;-78
2023/03/18 12:04:04;;;;;;;5.80;1.70;;;;;;;;;;5087488;28;20517;-79
2023/03/18 12:06:48;;;;;;;12.13;3.60;;;;;;;;;;5087062;28;20052;-77
2023/03/18 12:09:37;;;;;;;6.00;2.17;;;;;;;;;;5086709;28;20055;-75
2023/03/18 12:12:28;;;;;;;7.40;2.35;;;;;;;;;;5085809;28;20502;-75
2023/03/18 12:15:13;;;;;;;7.05;2.17;;;;;;;;;;5086990;28;20522;-74
2023/03/18 12:18:05;;;;;;;3.55;1.90;;;;;;;;;;5085569;28;20051;-75
2023/03/18 12:20:52;;;;;;;6.82;2.20;;;;;;;;;;5086509;28;20048;-76
2023/03/18 12:23:31;;;;;;;9.27;2.97;;;;;;;;;;5087240;28;20051;-76
2023/03/18 12:26:12;;;;;;;10.15;2.20;;;;;;;;;;5087015;28;20126;-75
2023/03/18 12:28:57;;;;;;;6.53;1.63;;;;;;;;;;5086423;28;20051;-75
2023/03/18 12:31:38;;;;;;;5.75;2.63;;;;;;;;;;5086501;28;20047;-73
2023/03/18 12:34:36;;;;;;;11.95;4.90;;;;;;;;;;5086245;28;20066;-74
2023/03/18 12:37:24;;;;;;;7.85;3.17;;;;;;;;;;5085079;28;20054;-74
2023/03/18 12:40:11;;;;;;;20.23;6.22;;;;;;;;;;5086426;28;20514;-75
2023/03/18 12:43:02;;;;;;;8.98;2.05;;;;;;;;;;5086125;28;20221;-76
2023/03/18 12:45:41;;;;;;;4.82;1.58;;;;;;;;;;5085955;28;20047;-74
2023/03/18 12:48:18;;;;;;;14.18;2.25;;;;;;;;;;5086377;28;20036;-75
2023/03/18 12:51:16;;;;;;;22.13;2.75;;;;;;;;;;5086344;28;20043;-73
2023/03/18 12:53:54;;;;;;;5.35;2.28;;;;;;;;;;5084413;28;20055;-75
2023/03/18 12:56:30;;;;;;;5.32;1.65;;;;;;;;;;5085772;28;20612;-74
2023/03/18 12:59:19;;;;;;;6.30;1.60;;;;;;;;;;5086040;28;20044;-75
2023/03/18 13:02:33;;;;;;;3.70;1.27;;;;;;;;;;5085845;28;20052;-75
2023/03/18 13:05:12;;;;;;;74.22;3.92;;;;;;;;;;5085388;28;20394;-77
2023/03/18 13:07:51;;;;;;;3.67;1.60;;;;;;;;;;5090236;28;20043;-75
2023/03/18 13:10:24;;;;;;;7.68;1.30;;;;;;;;;;5088261;28;20040;-74
2023/03/18 13:12:58;;;;;;;8.82;2.58;;;;;;;;;;5089833;28;20490;-77
2023/03/18 13:15:41;;;;;;;5.72;1.60;;;;;;;;;;5090426;28;20430;-77
2023/03/18 13:18:36;;;;;;;8.27;1.70;;;;;;;;;;5090053;28;20482;-76
2023/03/18 13:21:12;;;;;;;9.02;2.03;;;;;;;;;;5089378;28;20399;-77
2023/03/18 13:24:13;;;;;;;3.45;1.85;;;;;;;;;;5089696;28;20047;-76
2023/03/18 13:27:08;;;;;;;3.40;1.50;;;;;;;;;;5089504;28;20051;-78
2023/03/18 13:30:02;;;;;;;6.38;1.95;;;;;;;;;;5089715;28;20517;-75
2023/03/18 13:32:55;;;;;;;4.93;1.70;;;;;;;;;;5089534;28;20059;-75
2023/03/18 13:35:29;;;;;;;9.88;2.88;;;;;;;;;;5089676;28;20059;-76
2023/03/18 13:38:26;;;;;;;5.60;1.80;;;;;;;;;;5089894;28;20048;-78
2023/03/18 13:41:37;;;;;;;4.80;1.63;;;;;;;;;;5089087;28;20040;-75
2023/03/18 13:44:23;;;;;;;5.50;1.67;;;;;;;;;;5089082;28;20044;-75
2023/03/18 13:46:59;;;;;;;3.50;1.20;;;;;;;;;;5087659;28;20052;-74
2023/03/18 13:49:31;;;;;;;5.93;1.50;;;;;;;;;;5089473;28;20502;-76
2023/03/18 13:52:04;;;;;;;4.25;1.80;;;;;;;;;;5089152;28;20036;-77
2023/03/18 13:54:37;;;;;;;4.97;1.77;;;;;;;;;;5088584;28;20043;-75
2023/03/18 13:57:41;;;;;;;7.53;1.73;;;;;;;;;;5089001;28;20055;-77
2023/03/18 14:00:41;;;;;;;6.13;1.65;;;;;;;;;;5088853;28;20044;-77
2023/03/18 14:03:20;;;;;;;5.63;1.85;;;;;;;;;;5088497;28;20055;-75
2023/03/18 14:06:05;;;;;;;6.53;1.90;;;;;;;;;;5089271;28;20044;-76
2023/03/18 14:08:41;;;;;;;8.57;1.67;;;;;;;;;;5086588;28;20060;-76
2023/03/18 14:11:21;;;;;;;7.18;1.80;;;;;;;;;;5089164;28;20062;-77
2023/03/18 14:14:00;;;;;;;5.50;2.05;;;;;;;;;;5088953;28;20055;-75
2023/03/18 14:16:36;;;;;;;7.22;1.88;;;;;;;;;;5088296;28;20044;-75
2023/03/18 14:19:31;;;;;;;6.35;2.05;;;;;;;;;;5088432;28;20051;-74
2023/03/18 14:22:38;;;;;;;2.45;1.60;;;;;;;;;;5088673;28;20048;-76
2023/03/18 14:25:21;;;;;;;7.93;1.65;;;;;;;;;;5088857;28;21223;-76
2023/03/18 14:27:58;;;;;;;5.68;1.40;;;;;;;;;;5088386;28;20044;-75
2023/03/18 14:30:33;;;;;;;5.40;1.70;;;;;;;;;;5088944;28;20686;-76
2023/03/18 14:33:26;;;;;;;5.90;0.90;;;;;;;;;;5088290;28;20055;-77
2023/03/18 14:36:08;;;;;;;6.15;1.85;;;;;;;;;;5086319;28;20056;-73
2023/03/18 14:39:06;;;;;;;3.70;1.08;;;;;;;;;;5088075;28;20060;-77
2023/03/18 14:41:46;;;;;;;23.10;2.13;;;;;;;;;;5088207;28;20055;-75
2023/03/18 14:44:33;;;;;;;7.07;1.30;;;;;;;;;;5088357;28;20048;-75
2023/03/18 14:47:16;;;;;;;9.43;1.45;;;;;;;;;;5088552;28;20055;-75
2023/03/18 14:50:25;;;;;;;7.97;1.05;;;;;;;;;;5089085;28;20040;-79
2023/03/18 14:53:21;;;;;;;3.20;1.10;;;;;;;;;;5087521;28;20051;-74
2023/03/18 14:55:52;;;;;;;2.75;0.90;;;;;;;;;;5088103;28;20055;-73
2023/03/18 14:58:27;;;;;;;3.72;1.00;;;;;;;;;;5088010;28;20055;-75
2023/03/18 15:01:06;;;;;;;4.90;1.30;;;;;;;;;;5087887;28;20048;-75
2023/03/18 15:03:39;;;;;;;6.13;1.42;;;;;;;;;;5087602;28;20044;-75
2023/03/18 15:06:18;;;;;;;3.25;1.02;;;;;;;;;;5087444;28;20415;-76
2023/03/18 15:08:52;;;;;;;4.22;1.05;;;;;;;;;;5087445;28;20040;-74
2023/03/18 15:11:24;;;;;;;3.33;1.20;;;;;;;;;;5085876;28;20072;-75
2023/03/18 15:13:56;;;;;;;5.35;1.17;;;;;;;;;;5088109;28;20060;-77
2023/03/18 15:16:35;;;;;;;2.95;1.13;;;;;;;;;;5087502;28;20059;-74
2023/03/18 15:19:11;;;;;;;4.05;1.13;;;;;;;;;;5087543;28;20044;-74
2023/03/18 15:21:42;;;;;;;2.88;1.08;;;;;;;;;;5085213;28;20048;-75
2023/03/18 15:24:21;;;;;;;3.70;1.60;;;;;;;;;;5087368;28;20044;-76
2023/03/18 15:27:05;;;;;;;7.60;1.80;;;;;;;;;;5087387;28;20402;-75
2023/03/18 15:29:43;;;;;;;11.75;1.20;;;;;;;;;;5087298;28;20043;-75
2023/03/18 15:32:20;;;;;;;7.30;1.50;;;;;;;;;;5087753;28;20063;-74
2023/03/18 15:34:54;;;;;;;1.77;0.93;;;;;;;;;;5087636;28;20044;-75